createdAt,value
2018-03-18T00:00:09.753Z,93991
2018-03-18T00:02:40.099Z,93991
2018-03-18T00:05:09.250Z,93997
2018-03-18T00:07:38.936Z,94001
2018-03-18T00:10:08.010Z,94005
2018-03-18T00:12:37.845Z,94009
2018-03-18T00:15:06.922Z,94007
2018-03-18T00:17:36.718Z,94005
2018-03-18T00:20:06.619Z,94011
2018-03-18T00:22:35.818Z,94020
2018-03-18T00:25:05.950Z,94010
2018-03-18T00:27:35.089Z,94013
2018-03-18T00:30:04.120Z,94015
2018-03-18T00:32:33.574Z,94006
2018-03-18T00:35:02.652Z,94007
2018-03-18T00:37:33.843Z,94009
2018-03-18T00:40:02.883Z,94012
2018-03-18T00:42:32.306Z,94007
2018-03-18T00:45:01.444Z,94007
2018-03-18T00:47:30.662Z,94007
2018-03-18T00:49:59.828Z,93863
2018-03-18T00:52:28.996Z,94003
2018-03-18T00:54:58.116Z,94006
2018-03-18T00:57:27.320Z,94006
2018-03-18T00:59:56.353Z,94008
2018-03-18T01:02:26.148Z,94009
2018-03-18T01:04:55.987Z,94007
2018-03-18T01:07:25.010Z,94003
2018-03-18T01:09:54.121Z,94001
2018-03-18T01:12:23.156Z,94017
2018-03-18T01:14:52.297Z,93991
2018-03-18T01:17:21.334Z,93990
2018-03-18T01:19:51.274Z,93991
2018-03-18T01:22:20.492Z,94008
2018-03-18T01:24:49.697Z,93990
2018-03-18T01:27:18.758Z,93982
2018-03-18T01:29:47.886Z,93998
2018-03-18T01:32:17.040Z,93840
2018-03-18T01:34:46.148Z,93990
2018-03-18T01:37:16.181Z,93992
2018-03-18T01:39:45.229Z,93981
2018-03-18T01:42:15.087Z,93985
2018-03-18T01:44:45.109Z,93989
2018-03-18T01:47:14.199Z,93984
2018-03-18T01:49:43.324Z,93992
2018-03-18T01:52:12.374Z,93981
2018-03-18T01:54:41.507Z,93977
2018-03-18T01:57:10.606Z,93983
2018-03-18T01:59:40.546Z,93975
2018-03-18T02:02:10.515Z,93983
2018-03-18T02:04:39.666Z,93977
2018-03-18T02:07:08.738Z,93974
2018-03-18T02:09:37.915Z,93986
2018-03-18T02:12:07.004Z,93972
2018-03-18T02:14:36.070Z,94009
2018-03-18T02:17:05.183Z,93971
2018-03-18T02:19:34.269Z,93970
2018-03-18T02:22:03.304Z,93977
2018-03-18T02:24:33.153Z,93975
2018-03-18T02:27:03.789Z,93965
2018-03-18T02:29:32.845Z,93968
2018-03-18T02:32:01.887Z,93970
2018-03-18T02:34:30.956Z,93973
2018-03-18T02:37:07.359Z,93966
2018-03-18T02:39:36.435Z,93963
2018-03-18T02:42:05.470Z,93966
2018-03-18T02:44:34.774Z,93970
2018-03-18T02:47:03.800Z,93973
2018-03-18T02:49:32.928Z,93968
2018-03-18T02:52:01.972Z,93974
2018-03-18T02:54:30.994Z,93969
2018-03-18T02:57:00.060Z,93970
2018-03-18T02:59:29.091Z,93968
2018-03-18T03:01:58.213Z,93973
2018-03-18T03:04:27.241Z,93970
2018-03-18T03:06:56.404Z,93963
2018-03-18T03:09:25.456Z,93977
2018-03-18T03:11:54.469Z,93972
2018-03-18T03:14:23.534Z,93825
2018-03-18T03:16:52.774Z,93973
2018-03-18T03:19:22.013Z,93966
2018-03-18T03:21:51.050Z,93971
2018-03-18T03:24:20.187Z,93972
2018-03-18T03:26:49.983Z,93982
2018-03-18T03:29:19.137Z,93986
2018-03-18T03:31:48.088Z,93978
2018-03-18T03:34:17.918Z,93987
2018-03-18T03:36:46.947Z,93976
2018-03-18T03:39:16.014Z,93982
2018-03-18T03:41:45.050Z,93989
2018-03-18T03:44:14.292Z,93984
2018-03-18T03:46:43.310Z,93997
2018-03-18T03:49:12.347Z,93991
2018-03-18T03:51:41.405Z,93992
2018-03-18T03:54:10.458Z,93996
2018-03-18T03:56:39.482Z,93991
2018-03-18T03:59:08.549Z,93989
2018-03-18T04:01:37.574Z,93989
2018-03-18T04:04:06.633Z,93991
2018-03-18T04:06:36.306Z,93989
2018-03-18T04:09:05.326Z,93989
2018-03-18T04:11:34.358Z,94002
2018-03-18T04:14:04.101Z,93983
2018-03-18T04:16:33.154Z,93983
2018-03-18T04:19:02.179Z,93989
2018-03-18T04:21:31.238Z,94002
2018-03-18T04:24:00.260Z,94030
2018-03-18T04:26:29.346Z,93996
2018-03-18T04:28:58.455Z,94010
2018-03-18T04:31:27.486Z,93988
2018-03-18T04:33:56.602Z,93990
2018-03-18T04:36:25.599Z,93995
2018-03-18T04:38:54.666Z,94003
2018-03-18T04:41:23.900Z,94006
2018-03-18T04:43:52.974Z,94006
2018-03-18T04:46:22.038Z,94000
2018-03-18T04:48:51.082Z,94011
2018-03-18T04:51:20.183Z,93998
2018-03-18T04:53:49.200Z,94018
2018-03-18T04:56:19.008Z,94010
2018-03-18T04:58:48.070Z,94014
2018-03-18T05:01:17.142Z,94011
2018-03-18T05:03:46.387Z,94013
2018-03-18T05:06:15.442Z,94015
2018-03-18T05:08:44.521Z,94017
2018-03-18T05:11:13.595Z,94021
2018-03-18T05:13:42.733Z,94022
2018-03-18T05:16:11.748Z,94022
2018-03-18T05:18:40.819Z,94017
2018-03-18T05:21:09.851Z,94029
2018-03-18T05:23:41.334Z,94029
2018-03-18T05:26:10.420Z,94035
2018-03-18T05:28:39.446Z,94037
2018-03-18T05:31:08.486Z,94030
2018-03-18T05:33:38.925Z,94040
2018-03-18T05:36:08.044Z,94048
2018-03-18T05:38:37.620Z,94037
2018-03-18T05:41:07.498Z,94046
2018-03-18T05:43:37.330Z,94034
2018-03-18T05:46:06.375Z,94054
2018-03-18T05:48:35.428Z,94052
2018-03-18T05:51:05.231Z,94058
2018-03-18T05:53:35.049Z,94066
2018-03-18T05:56:04.121Z,94062
2018-03-18T05:58:33.151Z,94060
2018-03-18T06:01:02.244Z,94071
2018-03-18T06:03:31.281Z,94076
2018-03-18T06:06:00.358Z,94073
2018-03-18T06:08:31.358Z,94067
2018-03-18T06:11:00.431Z,94088
2018-03-18T06:13:29.489Z,94085
2018-03-18T06:15:58.604Z,94080
2018-03-18T06:18:27.673Z,94073
2018-03-18T06:20:56.756Z,94082
2018-03-18T06:23:25.791Z,94092
2018-03-18T06:25:54.854Z,94097
2018-03-18T06:28:23.877Z,94106
2018-03-18T06:30:52.958Z,94107
2018-03-18T06:33:22.005Z,94110
2018-03-18T06:35:51.106Z,94115
2018-03-18T06:38:20.164Z,94122
2018-03-18T06:40:50.011Z,94113
2018-03-18T06:43:19.147Z,94129
2018-03-18T06:45:48.170Z,94126
2018-03-18T06:48:17.268Z,94124
2018-03-18T06:50:47.082Z,94130
2018-03-18T06:53:16.118Z,94138
2018-03-18T06:55:45.224Z,94132
2018-03-18T06:58:14.302Z,94144
2018-03-18T07:00:43.363Z,94133
2018-03-18T07:03:13.999Z,94143
2018-03-18T07:05:43.073Z,94136
2018-03-18T07:08:12.861Z,94137
2018-03-18T07:10:41.900Z,93998
2018-03-18T07:13:11.026Z,94149
2018-03-18T07:15:40.129Z,94144
2018-03-18T07:18:09.251Z,94161
2018-03-18T07:20:39.163Z,94165
2018-03-18T07:23:09.028Z,94163
2018-03-18T07:25:38.159Z,94154
2018-03-18T07:28:07.234Z,94153
2018-03-18T07:30:36.315Z,94167
2018-03-18T07:33:05.440Z,94170
2018-03-18T07:35:34.522Z,94176
2018-03-18T07:38:03.587Z,94183
2018-03-18T07:40:32.672Z,94173
2018-03-18T07:43:01.727Z,94189
2018-03-18T07:45:31.551Z,94185
2018-03-18T07:48:01.271Z,94190
2018-03-18T07:50:30.370Z,94191
2018-03-18T07:53:00.191Z,94203
2018-03-18T07:55:29.284Z,94200
2018-03-18T07:57:58.407Z,94194
2018-03-18T08:03:02.838Z,94220
2018-03-18T08:05:32.065Z,94214
2018-03-18T08:08:01.171Z,94220
2018-03-18T08:10:31.006Z,94228
2018-03-18T08:13:00.130Z,94226
2018-03-18T08:15:29.179Z,94230
2018-03-18T08:17:58.253Z,94240
2018-03-18T08:20:27.378Z,94222
2018-03-18T08:22:56.417Z,94226
2018-03-18T08:25:25.458Z,94282
2018-03-18T08:27:55.222Z,94238
2018-03-18T08:30:24.286Z,94236
2018-03-18T08:32:54.033Z,94249
2018-03-18T08:35:23.387Z,94239
2018-03-18T08:37:52.572Z,94247
2018-03-18T08:40:23.116Z,94243
2018-03-18T08:42:52.169Z,94244
2018-03-18T08:45:21.614Z,94245
2018-03-18T08:47:50.889Z,94245
2018-03-18T08:50:19.957Z,94240
2018-03-18T08:52:48.983Z,94248
2018-03-18T08:55:18.115Z,94239
2018-03-18T08:57:48.933Z,94244
2018-03-18T09:00:19.331Z,94244
2018-03-18T09:02:51.818Z,94240
2018-03-18T09:05:20.835Z,94249
2018-03-18T09:07:56.504Z,94241
2018-03-18T09:10:27.816Z,94239
2018-03-18T09:12:56.923Z,94241
2018-03-18T09:15:25.958Z,94240
2018-03-18T09:17:55.081Z,94244
2018-03-18T09:20:24.130Z,94249
2018-03-18T09:22:53.195Z,94253
2018-03-18T09:25:22.459Z,94234
2018-03-18T09:27:52.512Z,94255
2018-03-18T09:30:22.599Z,94252
2018-03-18T09:32:51.736Z,94243
2018-03-18T09:35:20.918Z,94245
2018-03-18T09:37:49.970Z,94256
2018-03-18T09:40:19.863Z,94252
2018-03-18T09:42:51.043Z,94256
2018-03-18T09:45:20.851Z,94251
2018-03-18T09:47:49.941Z,94250
2018-03-18T09:50:19.389Z,94255
2018-03-18T09:52:48.532Z,94253
2018-03-18T09:55:31.724Z,94268
2018-03-18T09:58:00.899Z,94252
2018-03-18T10:00:29.982Z,94278
2018-03-18T10:02:59.795Z,94276
2018-03-18T10:05:28.904Z,94281
2018-03-18T10:07:57.963Z,94277
2018-03-18T10:10:27.047Z,94275
2018-03-18T10:12:56.626Z,94275
2018-03-18T10:15:25.638Z,94280
2018-03-18T10:17:54.721Z,94274
2018-03-18T10:20:24.664Z,94266
2018-03-18T10:22:53.697Z,94279
2018-03-18T10:25:22.771Z,94279
2018-03-18T10:27:52.608Z,94275
2018-03-18T10:30:21.672Z,94285
2018-03-18T10:32:51.474Z,94288
2018-03-18T10:35:20.546Z,94193
2018-03-18T10:37:49.710Z,94281
2018-03-18T10:40:18.776Z,94288
2018-03-18T10:42:48.656Z,94298
2018-03-18T10:45:17.732Z,94309
2018-03-18T10:47:46.739Z,94305
2018-03-18T10:50:16.594Z,94294
2018-03-18T10:52:45.692Z,94297
2018-03-18T10:55:14.714Z,94298
2018-03-18T10:57:43.774Z,94301
2018-03-18T11:00:13.368Z,94294
2018-03-18T11:02:43.222Z,94287
2018-03-18T11:05:12.255Z,94291
2018-03-18T11:07:41.414Z,94290
2018-03-18T11:10:10.459Z,94290
2018-03-18T11:12:39.490Z,94279
2018-03-18T11:15:08.634Z,94282
2018-03-18T11:17:37.644Z,94291
2018-03-18T11:20:07.437Z,94288
2018-03-18T11:22:36.525Z,94283
2018-03-18T11:25:05.885Z,94292
2018-03-18T11:27:34.907Z,94288
2018-03-18T11:30:03.990Z,94295
2018-03-18T11:32:33.039Z,94303
2018-03-18T11:35:02.046Z,94312
2018-03-18T11:37:31.138Z,94311
2018-03-18T11:40:00.532Z,94307
2018-03-18T11:42:30.143Z,94298
2018-03-18T11:44:59.203Z,94296
2018-03-18T11:47:28.227Z,94298
2018-03-18T11:49:57.478Z,94307
2018-03-18T11:52:26.955Z,94293
2018-03-18T11:54:56.118Z,94305
2018-03-18T11:57:25.416Z,94304
2018-03-18T11:59:54.580Z,94304
2018-03-18T12:02:23.677Z,94299
2018-03-18T12:04:52.837Z,94312
2018-03-18T12:07:23.253Z,94314
2018-03-18T12:09:52.640Z,94316
2018-03-18T12:12:21.838Z,94315
2018-03-18T12:14:50.956Z,94317
2018-03-18T12:17:20.769Z,94316
2018-03-18T12:19:49.904Z,94319
2018-03-18T12:22:18.933Z,94311
2018-03-18T12:24:48.623Z,94318
2018-03-18T12:27:18.097Z,94323
2018-03-18T12:29:47.203Z,94320
2018-03-18T12:32:17.024Z,94324
2018-03-18T12:34:46.508Z,94317
2018-03-18T12:37:16.306Z,94316
2018-03-18T12:40:03.195Z,94321
2018-03-18T12:42:50.086Z,94320
2018-03-18T12:45:20.562Z,94308
2018-03-18T12:47:49.706Z,94314
2018-03-18T12:50:19.750Z,94306
2018-03-18T12:52:48.786Z,94317
2018-03-18T12:55:18.443Z,94313
2018-03-18T12:57:47.562Z,94314
2018-03-18T13:00:16.645Z,94313
2018-03-18T13:02:45.744Z,94319
2018-03-18T13:05:15.835Z,94324
2018-03-18T13:07:44.951Z,94322
2018-03-18T13:10:14.004Z,94318
2018-03-18T13:12:43.146Z,94321
2018-03-18T13:15:12.348Z,94312
2018-03-18T13:17:42.597Z,94324
2018-03-18T13:20:11.702Z,94362
2018-03-18T13:22:41.790Z,94327
2018-03-18T13:25:10.886Z,94325
2018-03-18T13:27:40.715Z,94320
2018-03-18T13:30:11.554Z,94320
2018-03-18T13:32:40.900Z,94326
2018-03-18T13:35:10.968Z,94324
2018-03-18T13:37:41.228Z,94325
2018-03-18T13:40:10.319Z,94332
2018-03-18T13:42:39.410Z,94321
2018-03-18T13:45:10.336Z,94320
2018-03-18T13:47:39.591Z,94332
2018-03-18T13:50:12.105Z,94337
2018-03-18T13:52:41.495Z,94343
2018-03-18T13:55:11.517Z,94351
2018-03-18T13:57:41.786Z,94351
2018-03-18T14:00:10.864Z,94353
2018-03-18T14:02:41.867Z,94353
2018-03-18T14:05:12.872Z,94364
2018-03-18T14:07:41.971Z,94359
2018-03-18T14:10:11.113Z,94362
2018-03-18T14:12:40.229Z,94360
2018-03-18T14:15:10.283Z,94382
2018-03-18T14:17:43.971Z,94366
2018-03-18T14:20:13.954Z,94361
2018-03-18T14:22:43.738Z,94414
2018-03-18T14:25:12.882Z,94376
2018-03-18T14:27:43.001Z,94377
2018-03-18T14:30:13.009Z,94376
2018-03-18T14:32:42.930Z,94383
2018-03-18T14:35:14.010Z,94385
2018-03-18T14:37:43.101Z,94384
2018-03-18T14:40:12.183Z,94391
2018-03-18T14:42:41.215Z,94399
2018-03-18T14:45:10.328Z,94405
2018-03-18T14:47:42.985Z,94403
2018-03-18T14:50:12.094Z,94413
2018-03-18T14:52:44.877Z,94410
2018-03-18T14:55:13.983Z,94401
2018-03-18T14:57:43.018Z,94416
2018-03-18T15:00:12.364Z,94415
2018-03-18T15:02:42.341Z,94429
2018-03-18T15:05:11.431Z,94416
2018-03-18T15:07:42.575Z,94419
2018-03-18T15:10:11.676Z,94419
2018-03-18T15:12:41.937Z,94427
2018-03-18T15:15:11.039Z,94424
2018-03-18T15:17:45.122Z,94420
2018-03-18T15:20:15.281Z,94422
2018-03-18T15:22:47.708Z,94438
2018-03-18T15:25:16.771Z,94437
2018-03-18T15:27:46.881Z,94447
2018-03-18T15:30:16.708Z,94440
2018-03-18T15:32:45.885Z,94441
2018-03-18T15:35:15.011Z,94296
2018-03-18T15:37:45.630Z,94153
2018-03-18T15:40:17.811Z,94450
2018-03-18T15:42:47.959Z,94448
2018-03-18T15:45:17.351Z,94442
2018-03-18T15:47:46.646Z,94459
2018-03-18T15:50:17.009Z,94465
2018-03-18T15:52:48.771Z,94451
2018-03-18T15:55:17.826Z,94346
2018-03-18T15:57:46.963Z,94458
2018-03-18T16:00:16.331Z,94458
2018-03-18T16:02:45.383Z,94454
2018-03-18T16:05:14.474Z,94449
2018-03-18T16:07:44.565Z,94302
2018-03-18T16:10:13.605Z,94457
2018-03-18T16:12:42.654Z,94456
2018-03-18T16:15:11.714Z,94462
2018-03-18T16:17:40.721Z,94464
2018-03-18T16:20:09.790Z,94465
2018-03-18T16:22:38.844Z,94471
2018-03-18T16:25:08.646Z,94473
2018-03-18T16:27:37.710Z,94477
2018-03-18T16:30:24.685Z,94471
2018-03-18T16:32:53.697Z,94480
2018-03-18T16:35:22.763Z,94480
2018-03-18T16:37:51.769Z,94482
2018-03-18T16:40:20.834Z,94489
2018-03-18T16:42:49.839Z,94485
2018-03-18T16:45:18.915Z,94480
2018-03-18T16:47:48.689Z,94496
2018-03-18T16:50:17.731Z,94496
2018-03-18T16:52:46.776Z,94491
2018-03-18T16:55:15.828Z,94501
2018-03-18T16:57:45.538Z,94504
2018-03-18T17:00:14.606Z,94504
2018-03-18T17:02:43.647Z,94520
2018-03-18T17:05:12.704Z,94520
2018-03-18T17:07:41.721Z,94526
2018-03-18T17:10:10.794Z,94523
2018-03-18T17:12:39.874Z,94520
2018-03-18T17:15:08.890Z,94538
2018-03-18T17:17:37.918Z,94536
2018-03-18T17:20:06.986Z,94546
2018-03-18T17:22:36.009Z,94548
2018-03-18T17:25:05.074Z,94543
2018-03-18T17:27:34.136Z,94546
2018-03-18T17:30:03.224Z,94555
2018-03-18T17:32:33.047Z,94561
2018-03-18T17:35:02.132Z,94566
2018-03-18T17:37:31.166Z,94575
2018-03-18T17:40:00.232Z,94572
2018-03-18T17:42:29.274Z,94578
2018-03-18T17:45:16.195Z,94587
2018-03-18T17:48:03.002Z,94587
2018-03-18T17:50:50.533Z,94593
2018-03-18T17:53:37.251Z,94603
2018-03-18T17:56:23.917Z,94597
2018-03-18T17:58:53.071Z,94593
2018-03-18T18:01:22.179Z,94599
2018-03-18T18:03:51.246Z,94602
2018-03-18T18:06:21.077Z,94605
2018-03-18T18:08:50.101Z,94604
2018-03-18T18:11:19.178Z,94597
2018-03-18T18:13:51.267Z,94607
2018-03-18T18:16:20.331Z,94611
2018-03-18T18:18:49.360Z,94608
2018-03-18T18:21:18.440Z,94610
2018-03-18T18:23:47.469Z,94613
2018-03-18T18:26:16.532Z,94616
2018-03-18T18:28:45.582Z,94612
2018-03-18T18:31:14.647Z,94614
2018-03-18T18:33:43.670Z,94619
2018-03-18T18:36:12.745Z,94615
2018-03-18T18:38:42.548Z,94627
2018-03-18T18:41:11.662Z,94624
2018-03-18T18:43:40.677Z,94626
2018-03-18T18:46:09.725Z,94627
2018-03-18T18:48:39.577Z,94634
2018-03-18T18:51:08.610Z,94637
2018-03-18T18:53:37.650Z,94647
2018-03-18T18:56:06.799Z,94648
2018-03-18T18:58:35.892Z,94644
2018-03-18T19:01:04.961Z,94639
2018-03-18T19:03:33.994Z,94653
2018-03-18T19:06:03.848Z,94646
2018-03-18T19:08:32.967Z,94644
2018-03-18T19:11:01.983Z,94650
2018-03-18T19:13:31.531Z,94645
2018-03-18T19:16:00.592Z,94649
2018-03-18T19:18:29.764Z,94649
2018-03-18T19:21:04.311Z,94645
2018-03-18T19:23:33.345Z,94657
2018-03-18T19:26:02.406Z,94642
2018-03-18T19:28:32.214Z,94657
2018-03-18T19:31:01.276Z,94650
2018-03-18T19:33:30.386Z,94658
2018-03-18T19:36:00.385Z,94658
2018-03-18T19:38:29.716Z,94658
2018-03-18T19:40:59.531Z,94653
2018-03-18T19:43:28.663Z,94654
2018-03-18T19:45:57.713Z,94659
2018-03-18T19:48:26.817Z,94659
2018-03-18T19:50:56.018Z,94657
2018-03-18T19:53:25.079Z,94651
2018-03-18T19:55:56.226Z,94660
2018-03-18T19:58:25.428Z,94658
2018-03-18T20:00:54.539Z,94653
2018-03-18T20:03:23.775Z,94651
2018-03-18T20:05:52.969Z,94663
2018-03-18T20:08:22.847Z,94658
2018-03-18T20:10:52.162Z,94663
2018-03-18T20:13:21.255Z,94666
2018-03-18T20:15:50.290Z,94656
2018-03-18T20:18:19.768Z,94649
2018-03-18T20:20:48.905Z,94661
2018-03-18T20:23:17.996Z,94664
2018-03-18T20:25:47.106Z,94668
2018-03-18T20:28:17.200Z,94671
2018-03-18T20:30:46.431Z,94665
2018-03-18T20:33:15.549Z,94676
2018-03-18T20:35:44.647Z,94667
2018-03-18T20:38:13.744Z,94666
2018-03-18T20:40:42.774Z,94676
2018-03-18T20:43:11.867Z,94673
2018-03-18T20:45:40.957Z,94672
2018-03-18T20:48:10.261Z,94676
2018-03-18T20:50:39.304Z,94676
2018-03-18T20:53:10.942Z,94667
2018-03-18T20:55:41.004Z,94684
2018-03-18T20:58:11.901Z,94682
2018-03-18T21:00:42.736Z,94685
2018-03-18T21:03:11.866Z,94692
2018-03-18T21:05:40.904Z,94683
2018-03-18T21:08:10.033Z,94691
2018-03-18T21:10:39.458Z,94684
2018-03-18T21:13:08.655Z,94675
2018-03-18T21:15:37.761Z,94694
2018-03-18T21:18:07.742Z,94679
2018-03-18T21:20:37.055Z,94689
2018-03-18T21:23:07.118Z,94682
2018-03-18T21:25:36.337Z,94679
2018-03-18T21:28:05.427Z,94683
2018-03-18T21:30:34.563Z,94685
2018-03-18T21:33:03.712Z,94696
2018-03-18T21:35:32.807Z,94696
2018-03-18T21:38:02.776Z,94739
2018-03-18T21:40:32.960Z,94703
2018-03-18T21:43:02.925Z,94708
2018-03-18T21:45:32.042Z,94704
2018-03-18T21:48:02.197Z,94706
2018-03-18T21:50:31.277Z,94704
2018-03-18T21:53:00.439Z,94701
2018-03-18T21:55:29.477Z,94698
2018-03-18T21:57:59.321Z,94709
2018-03-18T22:00:28.660Z,94699
2018-03-18T22:02:57.642Z,94706
2018-03-18T22:05:26.735Z,94708
2018-03-18T22:07:56.008Z,94709
2018-03-18T22:10:25.544Z,94705
2018-03-18T22:12:54.712Z,94698
2018-03-18T22:15:24.933Z,94709
2018-03-18T22:18:02.420Z,94702
2018-03-18T22:20:33.218Z,94705
2018-03-18T22:23:04.722Z,94707
2018-03-18T22:25:34.633Z,94708
2018-03-18T22:28:03.760Z,94709
2018-03-18T22:30:33.586Z,94705
2018-03-18T22:33:02.660Z,94706
2018-03-18T22:35:32.510Z,94712
2018-03-18T22:38:01.570Z,94709
2018-03-18T22:40:30.697Z,94695
2018-03-18T22:42:59.717Z,94708
2018-03-18T22:45:29.062Z,94718
2018-03-18T22:47:59.185Z,94714
2018-03-18T22:50:28.213Z,94719
2018-03-18T22:52:57.238Z,94718
2018-03-18T22:55:26.298Z,94710
2018-03-18T22:57:55.362Z,94706
2018-03-18T23:00:24.408Z,94718
2018-03-18T23:02:53.520Z,94717
2018-03-18T23:05:22.579Z,94723
2018-03-18T23:07:51.629Z,94716
2018-03-18T23:10:23.039Z,94707
2018-03-18T23:12:52.109Z,94712
2018-03-18T23:15:21.193Z,94712
2018-03-18T23:17:59.718Z,94719
2018-03-18T23:20:28.766Z,94710
2018-03-18T23:22:58.589Z,94713
2018-03-18T23:25:27.623Z,94701
2018-03-18T23:27:56.779Z,94706
2018-03-18T23:30:25.811Z,94715
2018-03-18T23:32:54.887Z,94707
2018-03-18T23:35:23.976Z,94710
2018-03-18T23:37:53.133Z,94699
2018-03-18T23:40:22.937Z,94702
2018-03-18T23:42:52.789Z,94701
2018-03-18T23:45:21.839Z,94688
2018-03-18T23:47:50.871Z,94697
2018-03-18T23:50:20.466Z,94701
2018-03-18T23:52:49.491Z,94705
2018-03-18T23:55:18.519Z,94701
2018-03-18T23:57:47.587Z,94706
